Time;durP1;ratioP1;P1;durP2;ratioP2;P2;SDS_P1;SDS_P2;PMS_P1;PMS_P2;Temp;Humidity;BMP_temperature;BMP_pressure;BME280_temperature;BME280_humidity;BME280_pressure;Samples;Min_cycle;Max_cycle;Signal;HPM_P1;HPM_P2
2021/12/08 00:02:17;;;;;;;0.00;0.00;;;2.00;99.90;;;;;;5030403;28;20366;-69
2021/12/08 00:04:43;;;;;;;0.00;0.00;;;2.00;99.90;;;;;;5032315;28;20116;-69
2021/12/08 00:07:09;;;;;;;0.00;0.00;;;2.00;99.90;;;;;;5020940;28;20061;-69
2021/12/08 00:14:54;;;;;;;0.00;0.00;;;2.00;99.90;;;;;;5038609;28;20483;-69
2021/12/08 00:17:20;;;;;;;0.00;0.00;;;2.10;99.90;;;;;;5032652;28;20041;-69
2021/12/08 00:19:45;;;;;;;0.00;0.00;;;2.20;99.90;;;;;;5029725;28;20037;-68
2021/12/08 00:22:11;;;;;;;0.00;0.00;;;2.10;99.90;;;;;;5031924;28;20041;-69
2021/12/08 00:24:37;;;;;;;0.00;0.00;;;2.10;99.90;;;;;;5033080;28;20037;-69
2021/12/08 00:27:03;;;;;;;0.00;0.00;;;2.20;99.90;;;;;;5038159;28;20036;-69
2021/12/08 00:29:29;;;;;;;0.00;0.00;;;2.20;99.90;;;;;;5031583;28;20026;-69
2021/12/08 00:31:54;;;;;;;0.00;0.00;;;2.20;99.90;;;;;;5029730;28;20022;-68
2021/12/08 00:34:20;;;;;;;0.00;0.00;;;2.20;99.90;;;;;;5030411;28;20053;-69
2021/12/08 00:36:50;;;;;;;0.00;0.00;;;2.20;99.90;;;;;;5031638;28;20381;-69
2021/12/08 00:39:15;;;;;;;0.00;0.00;;;2.20;99.90;;;;;;5032037;28;20407;-69
2021/12/08 00:41:41;;;;;;;0.00;0.00;;;2.30;99.90;;;;;;5034015;28;20099;-69
2021/12/08 00:44:07;;;;;;;0.00;0.00;;;2.30;99.90;;;;;;5034550;28;20034;-69
2021/12/08 00:46:33;;;;;;;0.00;0.00;;;2.20;99.90;;;;;;5032385;28;20037;-69
2021/12/08 00:48:59;;;;;;;0.00;0.00;;;2.20;99.90;;;;;;5030886;28;20069;-69
2021/12/08 00:51:24;;;;;;;0.00;0.00;;;2.20;99.90;;;;;;5031375;28;20495;-68
2021/12/08 00:53:50;;;;;;;0.00;0.00;;;2.10;99.90;;;;;;5030159;28;20075;-69
2021/12/08 00:56:16;;;;;;;0.00;0.00;;;2.10;99.90;;;;;;5029794;28;20041;-69
2021/12/08 00:58:42;;;;;;;0.00;0.00;;;2.10;99.90;;;;;;5031984;28;20037;-69
2021/12/08 01:01:08;;;;;;;0.00;0.00;;;2.10;99.90;;;;;;5030670;28;20072;-69
2021/12/08 01:03:37;;;;;;;0.00;0.00;;;2.10;99.90;;;;;;5031846;28;20086;-69
2021/12/08 01:06:04;;;;;;;0.00;0.00;;;2.10;99.90;;;;;;5031105;28;20037;-68
2021/12/08 01:08:32;;;;;;;0.00;0.00;;;2.10;99.90;;;;;;5032456;28;20072;-69
2021/12/08 01:11:06;;;;;;;0.00;0.00;;;2.10;99.90;;;;;;5030093;28;20071;-69
2021/12/08 01:13:31;;;;;;;0.00;0.00;;;2.10;99.90;;;;;;5031985;28;20037;-69
2021/12/08 01:15:58;;;;;;;0.00;0.00;;;2.10;99.90;;;;;;5030790;28;20104;-69
2021/12/08 01:18:26;;;;;;;0.00;0.00;;;2.10;99.90;;;;;;5036464;28;20037;-69
2021/12/08 01:20:52;;;;;;;0.00;0.00;;;2.10;99.90;;;;;;5031406;28;20067;-69
2021/12/08 01:23:18;;;;;;;0.00;0.00;;;2.10;99.90;;;;;;5031965;28;20033;-69
2021/12/08 01:25:44;;;;;;;0.00;0.00;;;2.10;99.90;;;;;;5031217;28;20037;-68
2021/12/08 01:28:10;;;;;;;0.00;0.00;;;2.10;99.90;;;;;;5031643;28;20021;-69
2021/12/08 01:30:36;;;;;;;0.00;0.00;;;2.10;99.90;;;;;;5030627;28;20026;-69
2021/12/08 01:33:03;;;;;;;0.00;0.00;;;2.10;99.90;;;;;;5031096;28;20473;-69
2021/12/08 01:35:30;;;;;;;0.00;0.00;;;2.10;99.90;;;;;;5030956;28;20045;-69
2021/12/08 01:37:55;;;;;;;0.00;0.00;;;2.10;99.90;;;;;;5031549;28;20034;-69
2021/12/08 01:40:22;;;;;;;0.00;0.00;;;2.10;99.90;;;;;;5030592;28;20443;-68
2021/12/08 01:42:51;;;;;;;0.00;0.00;;;2.20;99.90;;;;;;5031795;28;20120;-69
2021/12/08 01:48:18;;;;;;;0.00;0.00;;;2.20;99.90;;;;;;5031669;28;20040;-68
2021/12/08 01:50:47;;;;;;;0.00;0.00;;;2.30;99.90;;;;;;5033962;28;20472;-69
2021/12/08 01:53:17;;;;;;;0.00;0.00;;;2.30;99.90;;;;;;5035488;28;20026;-69
2021/12/08 01:55:42;;;;;;;0.00;0.00;;;2.30;99.90;;;;;;5036464;28;20037;-69
2021/12/08 01:58:09;;;;;;;0.00;0.00;;;2.30;99.90;;;;;;5039928;28;20052;-69
2021/12/08 02:01:01;;;;;;;0.00;0.00;;;2.30;99.90;;;;;;5034722;28;20030;-69
2021/12/08 02:03:27;;;;;;;0.00;0.00;;;2.30;99.90;;;;;;5035081;28;20052;-69
2021/12/08 02:05:54;;;;;;;0.00;0.00;;;2.40;99.90;;;;;;5034468;28;20037;-69
2021/12/08 02:08:20;;;;;;;0.00;0.00;;;2.40;99.90;;;;;;5035259;28;20029;-69
2021/12/08 02:10:48;;;;;;;0.00;0.00;;;2.40;99.90;;;;;;5034122;28;20032;-68
2021/12/08 02:13:15;;;;;;;0.00;0.00;;;2.40;99.90;;;;;;5034768;28;20021;-69
2021/12/08 02:15:41;;;;;;;0.00;0.00;;;2.40;99.90;;;;;;5031195;28;20029;-69
2021/12/08 02:18:11;;;;;;;0.00;0.00;;;2.40;99.90;;;;;;5036758;28;20039;-69
2021/12/08 02:20:38;;;;;;;0.00;0.00;;;2.40;99.90;;;;;;5034319;28;20029;-69
2021/12/08 02:23:04;;;;;;;0.00;0.00;;;2.40;99.90;;;;;;5034315;28;20549;-69
2021/12/08 02:25:30;;;;;;;0.00;0.00;;;2.40;99.90;;;;;;5034534;28;20112;-69
2021/12/08 02:27:58;;;;;;;0.00;0.00;;;2.40;99.90;;;;;;5034047;28;20017;-69
2021/12/08 02:47:06;;;;;;;0.00;0.00;;;2.60;99.90;;;;;;5034300;28;20088;-69
2021/12/08 02:49:33;;;;;;;0.00;0.00;;;2.70;99.90;;;;;;5034459;28;20539;-69
2021/12/08 02:52:00;;;;;;;0.00;0.00;;;2.70;99.90;;;;;;5033656;28;20039;-69
2021/12/08 02:54:33;;;;;;;0.00;0.00;;;2.70;99.90;;;;;;5033663;28;20535;-69
2021/12/08 02:56:58;;;;;;;0.00;0.00;;;2.70;99.90;;;;;;5033407;28;20044;-69
2021/12/08 02:59:24;;;;;;;0.00;0.00;;;2.80;99.90;;;;;;5034615;28;20038;-69
2021/12/08 03:01:50;;;;;;;0.00;0.00;;;2.80;99.90;;;;;;5032825;28;20029;-69
2021/12/08 03:04:16;;;;;;;0.00;0.00;;;2.80;99.90;;;;;;5033674;28;20646;-69
2021/12/08 03:06:41;;;;;;;0.00;0.00;;;2.80;99.90;;;;;;5034023;28;20037;-69
2021/12/08 03:09:07;;;;;;;0.00;0.00;;;2.80;99.90;;;;;;5033119;28;20741;-69
2021/12/08 03:11:34;;;;;;;0.00;0.00;;;2.90;99.90;;;;;;5032858;28;20029;-69
2021/12/08 03:14:11;;;;;;;0.00;0.00;;;2.80;99.90;;;;;;5033094;28;20021;-69
2021/12/08 03:16:41;;;;;;;0.00;0.00;;;2.80;99.90;;;;;;5034062;28;20033;-69
2021/12/08 03:19:07;;;;;;;0.00;0.00;;;2.70;99.90;;;;;;5034773;28;20116;-69
2021/12/08 03:21:34;;;;;;;0.00;0.00;;;2.70;99.90;;;;;;5033347;28;20380;-69
2021/12/08 03:26:45;;;;;;;0.00;0.00;;;2.70;99.90;;;;;;5034085;28;20037;-69
2021/12/08 03:29:26;;;;;;;0.00;0.00;;;2.60;99.90;;;;;;5033222;28;20034;-69
2021/12/08 03:31:54;;;;;;;0.00;0.00;;;2.60;99.90;;;;;;5033029;28;20071;-69
2021/12/08 03:34:23;;;;;;;0.00;0.00;;;2.60;99.90;;;;;;5032703;28;20025;-69
2021/12/08 03:36:49;;;;;;;0.00;0.00;;;2.50;99.90;;;;;;5033816;28;20029;-69
2021/12/08 03:39:14;;;;;;;0.00;0.00;;;2.60;99.90;;;;;;5033188;28;20037;-69
2021/12/08 03:41:40;;;;;;;0.00;0.00;;;2.60;99.90;;;;;;5032631;28;20045;-69
2021/12/08 03:44:06;;;;;;;0.00;0.00;;;2.60;99.90;;;;;;5032572;28;20038;-69
2021/12/08 03:46:39;;;;;;;0.00;0.00;;;2.60;99.90;;;;;;5032002;28;20693;-69
2021/12/08 03:49:09;;;;;;;0.00;0.00;;;2.60;99.90;;;;;;5043574;28;20037;-69
2021/12/08 03:51:35;;;;;;;0.00;0.00;;;2.70;99.90;;;;;;5032446;28;20017;-69
2021/12/08 03:54:00;;;;;;;0.00;0.00;;;2.70;99.90;;;;;;5032105;28;20034;-69
2021/12/08 03:56:26;;;;;;;0.00;0.00;;;2.70;99.90;;;;;;5033549;28;20042;-69
2021/12/08 03:58:52;;;;;;;0.00;0.00;;;2.70;99.90;;;;;;5033307;28;20080;-69
2021/12/08 04:01:17;;;;;;;0.00;0.00;;;2.80;99.90;;;;;;5032238;28;20053;-70
2021/12/08 04:03:49;;;;;;;0.00;0.00;;;2.70;99.90;;;;;;5033480;28;20034;-69
2021/12/08 04:06:29;;;;;;;0.00;0.00;;;2.80;99.90;;;;;;5033086;28;20384;-70
2021/12/08 04:08:56;;;;;;;0.00;0.00;;;2.80;99.90;;;;;;5032353;28;20099;-69
2021/12/08 04:11:23;;;;;;;0.00;0.00;;;2.80;99.90;;;;;;5031562;28;20105;-69
2021/12/08 04:13:54;;;;;;;0.00;0.00;;;2.80;99.90;;;;;;5032216;28;20030;-69
2021/12/08 04:16:25;;;;;;;0.00;0.00;;;2.80;99.90;;;;;;5032531;28;20033;-69
2021/12/08 04:18:51;;;;;;;0.00;0.00;;;2.80;99.90;;;;;;5032307;28;20030;-69
2021/12/08 04:21:17;;;;;;;0.00;0.00;;;2.80;99.90;;;;;;5032177;28;20036;-68
2021/12/08 04:23:44;;;;;;;0.00;0.00;;;2.80;99.90;;;;;;5031884;28;20037;-68
2021/12/08 04:26:19;;;;;;;0.00;0.00;;;2.70;99.90;;;;;;5031703;28;20120;-68
2021/12/08 04:28:44;;;;;;;0.00;0.00;;;2.70;99.90;;;;;;5032256;28;20033;-68
2021/12/08 04:31:18;;;;;;;0.00;0.00;;;2.70;99.90;;;;;;5031882;28;20038;-71
2021/12/08 04:33:45;;;;;;;0.00;0.00;;;2.70;99.90;;;;;;5031577;28;20419;-68
2021/12/08 04:36:13;;;;;;;0.00;0.00;;;2.70;99.90;;;;;;5032365;28;20037;-67
2021/12/08 04:38:43;;;;;;;0.00;0.00;;;2.60;99.90;;;;;;5032053;28;20051;-67
2021/12/08 04:41:18;;;;;;;0.00;0.00;;;2.60;99.90;;;;;;5031657;28;20037;-67
2021/12/08 04:43:55;;;;;;;0.00;0.00;;;2.60;99.90;;;;;;5032498;28;20029;-67
2021/12/08 04:49:17;;;;;;;0.00;0.00;;;2.40;99.90;;;;;;5035360;28;20041;-67
2021/12/08 05:03:23;;;;;;;0.00;0.00;;;1.90;99.90;;;;;;5040459;28;20074;-67
2021/12/08 05:06:20;;;;;;;0.00;0.00;;;1.80;99.90;;;;;;5031969;28;20102;-67
2021/12/08 05:08:48;;;;;;;0.00;0.00;;;1.60;99.90;;;;;;5039155;28;20025;-71
2021/12/08 05:11:22;;;;;;;0.00;0.00;;;1.50;99.90;;;;;;5051158;28;20476;-71
2021/12/08 05:13:53;;;;;;;;;;;1.40;99.90;;;;;;5052229;28;20084;-71
2021/12/08 05:16:19;;;;;;;0.00;0.00;;;1.40;99.90;;;;;;5051929;28;20007;-71
2021/12/08 05:18:48;;;;;;;0.00;0.00;;;1.30;99.90;;;;;;5051709;28;20112;-72
2021/12/08 05:21:24;;;;;;;0.00;0.00;;;1.30;99.90;;;;;;5051251;28;20021;-72
2021/12/08 05:23:58;;;;;;;0.00;0.00;;;1.20;99.90;;;;;;5051517;28;20017;-72
2021/12/08 05:26:35;;;;;;;0.00;0.00;;;1.20;99.90;;;;;;5051373;28;20033;-70
2021/12/08 05:29:20;;;;;;;0.00;0.00;;;1.20;99.90;;;;;;5031599;28;20361;-72
2021/12/08 05:31:46;;;;;;;0.00;0.00;;;1.10;99.90;;;;;;5029183;28;20025;-71
2021/12/08 05:34:11;;;;;;;0.00;0.00;;;1.00;99.90;;;;;;5025889;28;20049;-70
2021/12/08 05:36:38;;;;;;;0.00;0.00;;;1.00;99.90;;;;;;5026693;28;20025;-71
2021/12/08 05:39:10;;;;;;;0.00;0.00;;;1.00;99.90;;;;;;5031188;28;20128;-69
2021/12/08 05:41:38;;;;;;;0.00;0.00;;;1.00;99.90;;;;;;5025585;28;20499;-71
2021/12/08 05:44:05;;;;;;;0.00;0.00;;;1.00;99.90;;;;;;5017035;28;20040;-69
2021/12/08 05:46:35;;;;;;;0.00;0.00;;;1.00;99.90;;;;;;5029867;28;20041;-70
2021/12/08 05:49:01;;;;;;;0.00;0.00;;;1.10;99.90;;;;;;5032120;28;20100;-70
2021/12/08 05:51:33;;;;;;;0.00;0.00;;;1.10;99.90;;;;;;5025993;28;20501;-69
2021/12/08 05:54:04;;;;;;;0.00;0.00;;;1.10;99.90;;;;;;5030932;28;20025;-69
2021/12/08 05:56:30;;;;;;;0.00;0.00;;;1.10;99.90;;;;;;5030672;28;20103;-69
2021/12/08 05:58:58;;;;;;;0.00;0.00;;;1.20;99.90;;;;;;5031047;28;20109;-69
2021/12/08 06:01:37;;;;;;;0.00;0.00;;;1.20;99.90;;;;;;5030256;28;20481;-70
2021/12/08 06:04:06;;;;;;;0.00;0.00;;;1.20;99.90;;;;;;5031171;28;20064;-69
2021/12/08 06:06:31;;;;;;;0.00;0.00;;;1.20;99.90;;;;;;5031253;28;20037;-70
2021/12/08 06:08:57;;;;;;;0.00;0.00;;;1.30;99.90;;;;;;5030867;28;20039;-70
2021/12/08 06:11:25;;;;;;;0.00;0.00;;;1.30;99.90;;;;;;5030691;28;20053;-70
2021/12/08 06:13:52;;;;;;;0.00;0.00;;;1.30;99.90;;;;;;5031423;28;20026;-69
2021/12/08 06:16:21;;;;;;;0.00;0.00;;;1.30;99.90;;;;;;5030465;28;20112;-69
2021/12/08 06:18:48;;;;;;;0.00;0.00;;;1.30;99.90;;;;;;5030545;28;20037;-70
2021/12/08 06:21:16;;;;;;;0.00;0.00;;;1.30;99.90;;;;;;5027580;28;20056;-69
2021/12/08 06:23:43;;;;;;;0.00;0.00;;;1.30;99.90;;;;;;5022518;28;20021;-69
2021/12/08 06:26:10;;;;;;;0.00;0.00;;;1.30;99.90;;;;;;5030092;28;20064;-69
2021/12/08 06:28:36;;;;;;;0.00;0.00;;;1.30;99.90;;;;;;5030776;28;20112;-69
2021/12/08 06:31:04;;;;;;;0.00;0.00;;;1.30;99.90;;;;;;5029038;28;20117;-69
2021/12/08 06:33:31;;;;;;;0.00;0.00;;;1.30;99.90;;;;;;5030388;28;20025;-70
2021/12/08 06:36:23;;;;;;;0.00;0.00;;;1.30;99.90;;;;;;5032609;28;20026;-70
2021/12/08 06:38:50;;;;;;;0.00;0.00;;;1.30;99.90;;;;;;5031064;28;20069;-70
2021/12/08 06:41:22;;;;;;;0.00;0.00;;;1.30;99.90;;;;;;5032938;28;20520;-70
2021/12/08 06:43:52;;;;;;;0.00;0.00;;;1.40;99.90;;;;;;5034111;28;20033;-70
2021/12/08 06:46:18;;;;;;;0.00;0.00;;;1.40;99.90;;;;;;5033983;28;20037;-70
2021/12/08 06:48:47;;;;;;;0.00;0.00;;;1.40;99.90;;;;;;5036208;28;20029;-71
2021/12/08 06:51:44;;;;;;;0.00;0.00;;;1.40;99.90;;;;;;5050163;28;20076;-70
2021/12/08 06:54:38;;;;;;;0.00;0.00;;;1.50;99.90;;;;;;5023877;28;20156;-71
2021/12/08 06:57:10;;;;;;;0.00;0.00;;;1.50;99.90;;;;;;5031853;28;20052;-71
2021/12/08 06:59:51;;;;;;;0.00;0.00;;;1.50;99.90;;;;;;5036899;28;20507;-71
2021/12/08 07:02:34;;;;;;;0.00;0.00;;;1.60;99.90;;;;;;5020435;28;20032;-71
2021/12/08 07:05:25;;;;;;;0.00;0.00;;;1.60;99.90;;;;;;5034152;28;20025;-71
2021/12/08 07:07:54;;;;;;;0.00;0.00;;;1.70;99.90;;;;;;5033653;28;20022;-72
2021/12/08 07:10:24;;;;;;;0.00;0.00;;;1.70;99.90;;;;;;5033275;28;20981;-72
2021/12/08 07:13:03;;;;;;;0.00;0.00;;;1.70;99.90;;;;;;5033115;28;20384;-72
2021/12/08 07:15:55;;;;;;;0.00;0.00;;;1.70;99.90;;;;;;5033931;28;20492;-72
2021/12/08 07:18:38;;;;;;;0.00;0.00;;;1.70;99.90;;;;;;5029680;28;20050;-72
2021/12/08 07:21:07;;;;;;;0.00;0.00;;;1.70;99.90;;;;;;5032366;28;20035;-72
2021/12/08 07:23:43;;;;;;;0.00;0.00;;;1.70;99.90;;;;;;5033741;28;20033;-72
2021/12/08 07:26:22;;;;;;;0.00;0.00;;;1.70;99.90;;;;;;5033091;28;20036;-72
2021/12/08 07:28:50;;;;;;;0.00;0.00;;;1.70;99.90;;;;;;5036909;28;20059;-72
2021/12/08 07:31:29;;;;;;;0.00;0.00;;;1.70;99.90;;;;;;5032379;28;20121;-71
2021/12/08 07:34:02;;;;;;;0.00;0.00;;;1.70;99.90;;;;;;5033315;28;20034;-72
2021/12/08 07:36:28;;;;;;;0.00;0.00;;;1.70;99.90;;;;;;5033441;28;20439;-71
2021/12/08 07:38:56;;;;;;;0.00;0.00;;;1.70;99.90;;;;;;5033339;28;20102;-71
2021/12/08 07:41:32;;;;;;;0.00;0.00;;;1.80;99.90;;;;;;5032886;28;20384;-70
2021/12/08 07:44:04;;;;;;;0.00;0.00;;;1.80;99.90;;;;;;5033034;28;20029;-71
2021/12/08 07:46:34;;;;;;;0.00;0.00;;;1.80;99.90;;;;;;5040667;28;20041;-71
2021/12/08 07:49:08;;;;;;;0.00;0.00;;;1.80;99.90;;;;;;5033400;28;20036;-70
2021/12/08 07:51:39;;;;;;;0.00;0.00;;;1.80;99.90;;;;;;5032841;28;20022;-70
2021/12/08 07:54:07;;;;;;;0.00;0.00;;;1.80;99.90;;;;;;5033099;28;20460;-70
2021/12/08 07:56:34;;;;;;;0.00;0.00;;;1.80;99.90;;;;;;5032859;28;20068;-71
2021/12/08 07:59:03;;;;;;;0.00;0.00;;;1.90;99.90;;;;;;5033122;28;20520;-71
2021/12/08 08:01:33;;;;;;;0.00;0.00;;;1.90;99.90;;;;;;5032260;28;20033;-71
2021/12/08 08:04:01;;;;;;;0.00;0.00;;;2.00;99.90;;;;;;5039414;28;20034;-70
2021/12/08 08:06:32;;;;;;;0.00;0.00;;;2.00;99.90;;;;;;5047217;28;20041;-70
2021/12/08 08:08:57;;;;;;;0.00;0.00;;;2.00;99.90;;;;;;5052676;28;20384;-71
2021/12/08 08:11:29;;;;;;;0.00;0.00;;;2.00;99.90;;;;;;5052122;28;20028;-69
2021/12/08 08:13:54;;;;;;;0.00;0.00;;;2.10;99.90;;;;;;5052886;28;20361;-70
2021/12/08 08:16:24;;;;;;;0.00;0.00;;;2.10;99.90;;;;;;5048847;28;20037;-69
2021/12/08 08:18:58;;;;;;;0.00;0.00;;;2.10;99.90;;;;;;5032941;28;20029;-70
2021/12/08 08:21:28;;;;;;;0.00;0.00;;;2.10;99.90;;;;;;5031652;28;20400;-70
2021/12/08 08:23:55;;;;;;;0.00;0.00;;;2.10;99.90;;;;;;5032980;28;20083;-69
2021/12/08 08:26:20;;;;;;;0.00;0.00;;;2.20;99.90;;;;;;5037334;28;20060;-69
2021/12/08 08:28:50;;;;;;;0.00;0.00;;;2.20;99.90;;;;;;5052673;28;20061;-69
2021/12/08 08:31:32;;;;;;;0.00;0.00;;;2.20;99.90;;;;;;5044260;28;20468;-69
2021/12/08 08:33:59;;;;;;;0.00;0.00;;;2.20;99.90;;;;;;5033078;28;20029;-69
2021/12/08 08:36:28;;;;;;;0.00;0.00;;;2.20;99.90;;;;;;5052510;28;20033;-69
2021/12/08 08:39:20;;;;;;;0.00;0.00;;;2.30;99.90;;;;;;5052613;28;20488;-69
2021/12/08 08:42:01;;;;;;;0.00;0.00;;;2.30;99.90;;;;;;5032023;28;20021;-68
2021/12/08 08:44:34;;;;;;;0.00;0.00;;;2.40;99.90;;;;;;5031899;28;20014;-68
2021/12/08 08:47:05;;;;;;;0.00;0.00;;;2.40;99.90;;;;;;5032426;28;20041;-68
2021/12/08 08:49:34;;;;;;;0.00;0.00;;;2.40;99.90;;;;;;5030700;28;20030;-67
2021/12/08 08:52:04;;;;;;;0.00;0.00;;;2.50;99.90;;;;;;5029570;28;20112;-68
2021/12/08 08:54:37;;;;;;;0.00;0.00;;;2.50;99.90;;;;;;5030268;28;20022;-67
2021/12/08 08:57:12;;;;;;;0.00;0.00;;;2.60;99.90;;;;;;5029876;28;20034;-67
2021/12/08 08:59:47;;;;;;;0.00;0.00;;;2.60;99.90;;;;;;5029551;28;20072;-67
2021/12/08 09:02:17;;;;;;;0.00;0.00;;;2.70;99.90;;;;;;5038291;28;20057;-67
2021/12/08 09:04:48;;;;;;;0.00;0.00;;;2.70;99.90;;;;;;5030527;28;20013;-68
2021/12/08 09:07:22;;;;;;;0.00;0.00;;;2.70;99.90;;;;;;5031769;28;20399;-68
2021/12/08 09:09:48;;;;;;;0.00;0.00;;;2.80;99.90;;;;;;5047591;28;20055;-68
2021/12/08 09:12:17;;;;;;;0.00;0.00;;;2.80;99.90;;;;;;5051261;28;20036;-68
2021/12/08 09:14:57;;;;;;;0.00;0.00;;;2.80;99.90;;;;;;5051661;28;20028;-68
2021/12/08 09:17:31;;;;;;;0.00;0.00;;;2.90;99.90;;;;;;5051169;28;20048;-68
2021/12/08 09:20:04;;;;;;;0.00;0.00;;;2.90;99.90;;;;;;5042616;28;20502;-67
2021/12/08 09:22:42;;;;;;;0.00;0.00;;;2.90;99.90;;;;;;5039868;28;20032;-68
2021/12/08 09:25:25;;;;;;;0.00;0.00;;;2.90;99.90;;;;;;5031704;28;20040;-67
2021/12/08 09:27:54;;;;;;;0.00;0.00;;;2.90;99.90;;;;;;5035967;28;20048;-67
2021/12/08 09:30:33;;;;;;;0.00;0.00;;;2.90;99.90;;;;;;5050675;28;20260;-68
2021/12/08 09:33:03;;;;;;;0.00;0.00;;;2.90;99.90;;;;;;5042192;28;20200;-67
2021/12/08 09:35:34;;;;;;;0.00;0.00;;;3.00;99.90;;;;;;5031471;28;20041;-67
2021/12/08 09:38:10;;;;;;;0.00;0.00;;;3.00;99.90;;;;;;5031230;28;20021;-67
2021/12/08 09:40:42;;;;;;;0.00;0.00;;;3.10;99.90;;;;;;5030781;28;20034;-67
2021/12/08 09:43:23;;;;;;;0.00;0.00;;;3.10;99.90;;;;;;5031648;28;20109;-67
2021/12/08 09:45:54;;;;;;;0.00;0.00;;;3.10;99.90;;;;;;5044390;28;20033;-67
2021/12/08 09:48:20;;;;;;;0.00;0.00;;;3.10;99.90;;;;;;5031371;28;20021;-67
2021/12/08 09:50:46;;;;;;;0.00;0.00;;;3.20;99.90;;;;;;5030944;28;20026;-67
2021/12/08 09:53:13;;;;;;;0.00;0.00;;;3.20;99.90;;;;;;5031190;28;20445;-67
2021/12/08 09:55:38;;;;;;;0.00;0.00;;;3.20;99.90;;;;;;5036716;28;20041;-67
2021/12/08 09:58:06;;;;;;;0.00;0.00;;;3.30;99.90;;;;;;5031173;28;20137;-67
2021/12/08 10:00:35;;;;;;;0.00;0.00;;;3.30;99.90;;;;;;5030654;28;20033;-67
2021/12/08 10:03:03;;;;;;;0.00;0.00;;;3.30;99.90;;;;;;5031167;28;20508;-67
2021/12/08 10:05:32;;;;;;;0.00;0.00;;;3.30;99.90;;;;;;5051213;28;20063;-67
2021/12/08 10:08:00;;;;;;;0.00;0.00;;;3.30;99.90;;;;;;5051459;28;20025;-67
2021/12/08 10:10:28;;;;;;;0.00;0.00;;;3.20;99.90;;;;;;5051851;28;20066;-67
2021/12/08 10:12:53;;;;;;;0.00;0.00;;;3.20;99.90;;;;;;5052649;28;20168;-68
2021/12/08 10:15:21;;;;;;;0.00;0.00;;;3.30;99.90;;;;;;5054368;28;20112;-67
2021/12/08 10:17:48;;;;;;;0.00;0.00;;;3.30;99.90;;;;;;5055002;28;20032;-67
2021/12/08 10:20:26;;;;;;;0.00;0.00;;;3.20;99.90;;;;;;5046107;28;20025;-67
2021/12/08 10:23:19;;;;;;;0.00;0.00;;;3.30;99.90;;;;;;5035113;28;20017;-67
2021/12/08 10:25:59;;;;;;;0.00;0.00;;;3.20;99.90;;;;;;5034752;28;20446;-68
2021/12/08 10:28:38;;;;;;;0.00;0.00;;;3.20;99.90;;;;;;5036831;28;20033;-68
2021/12/08 10:31:25;;;;;;;0.00;0.00;;;3.30;99.90;;;;;;5036145;28;20030;-67
2021/12/08 10:34:03;;;;;;;0.00;0.00;;;3.30;99.90;;;;;;5034548;28;20059;-67
2021/12/08 10:36:47;;;;;;;0.00;0.00;;;3.30;99.90;;;;;;5035811;28;20042;-67
2021/12/08 10:39:36;;;;;;;0.00;0.00;;;3.30;99.90;;;;;;5034946;28;20026;-67
2021/12/08 10:42:04;;;;;;;0.00;0.00;;;3.30;99.90;;;;;;5028083;28;20428;-67
2021/12/08 10:44:51;;;;;;;0.00;0.00;;;3.30;99.90;;;;;;5034971;28;20039;-67
2021/12/08 10:47:32;;;;;;;0.00;0.00;;;3.40;99.90;;;;;;5034172;28;20029;-67
2021/12/08 10:55:31;;;;;;;0.00;0.00;;;3.30;99.90;;;;;;5029327;28;20523;-68
2021/12/08 10:57:57;;;;;;;0.00;0.00;;;3.30;99.90;;;;;;5028995;28;20029;-68
2021/12/08 11:00:31;;;;;;;0.00;0.00;;;3.30;99.90;;;;;;5033990;28;20476;-67
2021/12/08 11:03:03;;;;;;;0.00;0.00;;;3.30;99.90;;;;;;5034393;28;20108;-67
2021/12/08 11:05:42;;;;;;;0.00;0.00;;;3.50;99.90;;;;;;5034603;28;20043;-67
2021/12/08 11:08:13;;;;;;;0.00;0.00;;;3.50;99.90;;;;;;5045926;28;20025;-67
2021/12/08 11:10:50;;;;;;;0.00;0.00;;;3.60;99.90;;;;;;5033680;28;20439;-67
2021/12/08 11:13:18;;;;;;;0.00;0.00;;;3.70;99.90;;;;;;5034190;28;20036;-67
2021/12/08 11:15:45;;;;;;;0.00;0.00;;;3.70;99.90;;;;;;5041953;28;20060;-67
2021/12/08 11:18:17;;;;;;;0.00;0.00;;;3.80;99.90;;;;;;5036999;28;20036;-67
2021/12/08 11:20:55;;;;;;;0.00;0.00;;;3.90;99.90;;;;;;5041422;28;20030;-67
2021/12/08 11:23:44;;;;;;;0.00;0.00;;;4.00;99.90;;;;;;5021458;28;20031;-67
2021/12/08 11:26:26;;;;;;;0.00;0.00;;;3.90;99.90;;;;;;5049326;28;20059;-67
2021/12/08 11:29:00;;;;;;;0.00;0.00;;;4.00;99.90;;;;;;5046131;28;20079;-69
2021/12/08 11:31:32;;;;;;;0.00;0.00;;;4.00;99.90;;;;;;5043765;28;20026;-67
2021/12/08 11:34:03;;;;;;;0.00;0.00;;;4.00;99.90;;;;;;5033919;28;20044;-68
2021/12/08 11:36:35;;;;;;;0.00;0.00;;;4.00;99.90;;;;;;5033641;28;20468;-68
2021/12/08 11:39:16;;;;;;;0.00;0.00;;;4.10;99.90;;;;;;5031462;28;20147;-67
2021/12/08 11:41:54;;;;;;;0.00;0.00;;;4.10;99.90;;;;;;5032758;28;20059;-68
2021/12/08 11:44:26;;;;;;;0.00;0.00;;;4.20;99.90;;;;;;5033734;28;20104;-68
2021/12/08 11:46:58;;;;;;;0.00;0.00;;;4.40;99.90;;;;;;5040869;28;20033;-68
2021/12/08 11:49:25;;;;;;;0.00;0.00;;;4.50;99.90;;;;;;5031671;28;20036;-68
2021/12/08 11:51:58;;;;;;;0.00;0.00;;;4.50;99.90;;;;;;5029192;28;20040;-67
2021/12/08 11:54:49;;;;;;;0.00;0.00;;;4.60;99.90;;;;;;5026923;28;20453;-68
2021/12/08 11:57:33;;;;;;;0.00;0.00;;;4.70;99.90;;;;;;5030493;28;20042;-68
2021/12/08 12:00:15;;;;;;;0.00;0.00;;;4.80;99.90;;;;;;5031212;28;20482;-67
2021/12/08 12:02:44;;;;;;;0.00;0.00;;;4.90;99.90;;;;;;5026405;28;20072;-67
2021/12/08 12:05:20;;;;;;;0.00;0.00;;;4.80;99.90;;;;;;5027673;28;20064;-67
2021/12/08 12:07:47;;;;;;;0.00;0.00;;;4.70;99.90;;;;;;5025192;28;20033;-67
2021/12/08 12:10:15;;;;;;;0.00;0.00;;;4.70;99.90;;;;;;5037089;28;20100;-67
2021/12/08 12:12:41;;;;;;;0.00;0.00;;;4.70;99.90;;;;;;5052555;28;20021;-67
2021/12/08 12:15:11;;;;;;;0.00;0.00;;;4.50;99.90;;;;;;5031508;28;20017;-67
2021/12/08 12:17:37;;;;;;;0.00;0.00;;;4.40;99.90;;;;;;5031139;28;20030;-67
2021/12/08 12:20:17;;;;;;;0.00;0.00;;;4.30;99.90;;;;;;5032422;28;20048;-68
2021/12/08 12:23:08;;;;;;;0.00;0.00;;;4.30;99.90;;;;;;5028294;28;20053;-67
2021/12/08 12:25:49;;;;;;;0.00;0.00;;;4.30;99.90;;;;;;5026214;28;20092;-67
2021/12/08 12:28:26;;;;;;;0.00;0.00;;;4.30;99.90;;;;;;5030306;28;20084;-67
2021/12/08 12:30:57;;;;;;;0.00;0.00;;;4.30;99.90;;;;;;5025514;28;20079;-69
2021/12/08 12:33:23;;;;;;;0.00;0.00;;;4.30;99.90;;;;;;5031770;28;20032;-68
2021/12/08 12:35:50;;;;;;;0.00;0.00;;;4.30;99.90;;;;;;5026114;28;20037;-69
2021/12/08 12:38:16;;;;;;;0.00;0.00;;;4.30;99.90;;;;;;5028564;28;20037;-69
2021/12/08 12:40:48;;;;;;;0.00;0.00;;;4.40;99.90;;;;;;5022968;28;20076;-69
2021/12/08 12:43:33;;;;;;;0.00;0.00;;;4.40;99.90;;;;;;5031348;28;20033;-69
2021/12/08 12:46:11;;;;;;;0.00;0.00;;;4.50;99.90;;;;;;5031821;28;20034;-69
2021/12/08 12:48:38;;;;;;;0.00;0.00;;;4.50;99.90;;;;;;5029309;28;20030;-69
2021/12/08 12:51:09;;;;;;;0.00;0.00;;;4.60;99.90;;;;;;5035100;28;20029;-69
2021/12/08 12:53:41;;;;;;;0.00;0.00;;;4.70;99.90;;;;;;5026372;28;20062;-69
2021/12/08 12:56:16;;;;;;;0.00;0.00;;;4.70;99.90;;;;;;5024452;28;20087;-69
2021/12/08 12:58:52;;;;;;;0.00;0.00;;;4.60;99.90;;;;;;5029837;28;20025;-69
2021/12/08 13:01:27;;;;;;;0.00;0.00;;;4.60;99.90;;;;;;5026891;28;20067;-69
2021/12/08 13:04:06;;;;;;;0.00;0.00;;;4.40;99.90;;;;;;5022532;28;20087;-68
2021/12/08 13:06:45;;;;;;;0.00;0.00;;;4.20;99.90;;;;;;5039059;28;20025;-67
2021/12/08 13:09:36;;;;;;;0.00;0.00;;;4.10;99.90;;;;;;5027664;28;20585;-68
2021/12/08 13:12:16;;;;;;;0.00;0.00;;;4.00;99.90;;;;;;5027317;28;20045;-68
2021/12/08 13:14:44;;;;;;;0.00;0.00;;;4.00;99.90;;;;;;5024505;28;20026;-68
2021/12/08 13:17:28;;;;;;;0.00;0.00;;;3.90;99.90;;;;;;5023379;28;20037;-68
2021/12/08 13:19:59;;;;;;;0.00;0.00;;;3.80;99.90;;;;;;5022817;28;20419;-68
2021/12/08 13:22:49;;;;;;;0.00;0.00;;;3.80;99.90;;;;;;5027207;28;20037;-68
2021/12/08 13:28:33;;;;;;;0.00;0.00;;;3.80;99.90;;;;;;5018990;28;20041;-67
2021/12/08 13:30:58;;;;;;;0.00;0.00;;;3.80;99.90;;;;;;5024891;28;20113;-68
2021/12/08 13:33:29;;;;;;;0.00;0.00;;;3.90;99.90;;;;;;5025084;28;20104;-67
2021/12/08 13:35:56;;;;;;;0.00;0.00;;;3.90;99.90;;;;;;5031097;28;20079;-68
2021/12/08 13:38:23;;;;;;;0.00;0.00;;;3.90;99.90;;;;;;5031724;28;20029;-67
2021/12/08 13:40:53;;;;;;;0.00;0.00;;;4.00;99.90;;;;;;5030668;28;20029;-68
2021/12/08 13:43:39;;;;;;;0.00;0.00;;;3.90;99.90;;;;;;5031453;28;20087;-68
2021/12/08 13:46:09;;;;;;;0.00;0.00;;;3.80;99.90;;;;;;5035314;28;20079;-67
2021/12/08 13:48:55;;;;;;;0.00;0.00;;;3.70;99.90;;;;;;5035079;28;20036;-67
2021/12/08 13:51:21;;;;;;;0.00;0.00;;;3.70;99.90;;;;;;5034160;28;20386;-68
2021/12/08 13:54:25;;;;;;;0.00;0.00;;;3.70;99.90;;;;;;5032437;28;20029;-68
2021/12/08 13:56:51;;;;;;;0.00;0.00;;;3.80;99.90;;;;;;5033134;28;20037;-68
2021/12/08 13:59:45;;;;;;;0.00;0.00;;;3.80;99.90;;;;;;5034897;28;20072;-68
2021/12/08 14:02:25;;;;;;;0.00;0.00;;;3.70;99.90;;;;;;5031290;28;20052;-68
2021/12/08 14:05:00;;;;;;;0.00;0.00;;;3.70;99.90;;;;;;5034708;28;20083;-68
2021/12/08 14:07:26;;;;;;;0.00;0.00;;;3.60;99.90;;;;;;5033869;28;20033;-68
2021/12/08 14:10:00;;;;;;;0.00;0.00;;;3.60;99.90;;;;;;5033307;28;20026;-68
2021/12/08 14:12:59;;;;;;;0.00;0.00;;;3.60;99.90;;;;;;5035084;28;20108;-68